createdAt,value
2018-04-27T00:01:36.073Z,11.49
2018-04-27T00:04:02.020Z,11.43
2018-04-27T00:06:27.955Z,11.45
2018-04-27T00:08:53.904Z,11.57
2018-04-27T00:11:19.830Z,11.67
2018-04-27T00:13:45.782Z,11.92
2018-04-27T00:16:12.950Z,11.95
2018-04-27T00:18:38.955Z,11.95
2018-04-27T00:21:04.974Z,11.42
2018-04-27T00:23:30.922Z,11.35
2018-04-27T00:25:56.884Z,11.37
2018-04-27T00:28:22.820Z,11.28
2018-04-27T00:30:48.782Z,11.66
2018-04-27T00:33:14.743Z,11.77
2018-04-27T00:35:40.688Z,11.35
2018-04-27T00:38:06.651Z,11.21
2018-04-27T00:40:32.587Z,11.47
2018-04-27T00:42:58.508Z,11.82
2018-04-27T00:45:24.468Z,11.83
2018-04-27T00:47:50.418Z,11.91
2018-04-27T00:50:16.400Z,11.88
2018-04-27T00:52:42.363Z,12.20
2018-04-27T00:55:08.295Z,12.13
2018-04-27T00:57:34.263Z,12.26
2018-04-27T01:00:00.241Z,12.36
2018-04-27T01:02:26.177Z,12.10
2018-04-27T01:04:52.128Z,11.76
2018-04-27T01:07:18.059Z,11.65
2018-04-27T01:09:43.994Z,11.46
2018-04-27T01:12:09.972Z,11.09
2018-04-27T01:14:35.906Z,11.37
2018-04-27T01:17:01.849Z,11.50
2018-04-27T01:19:27.784Z,11.48
2018-04-27T01:21:53.736Z,11.62
2018-04-27T01:24:19.683Z,11.74
2018-04-27T01:26:45.635Z,11.88
2018-04-27T01:29:11.575Z,11.74
2018-04-27T01:31:37.496Z,11.63
2018-04-27T01:34:03.434Z,11.47
2018-04-27T01:36:29.369Z,11.31
2018-04-27T01:38:55.326Z,11.52
2018-04-27T01:41:21.256Z,11.42
2018-04-27T01:43:47.193Z,11.65
2018-04-27T01:46:13.159Z,11.53
2018-04-27T01:48:39.103Z,11.55
2018-04-27T01:51:05.075Z,11.08
2018-04-27T01:53:31.028Z,11.26
2018-04-27T01:55:57.000Z,11.21
2018-04-27T01:58:22.944Z,11.35
2018-04-27T02:00:48.929Z,11.48
2018-04-27T02:03:14.855Z,11.23
2018-04-27T02:05:40.770Z,10.96
2018-04-27T02:08:06.744Z,10.82
2018-04-27T02:10:32.664Z,10.77
2018-04-27T02:12:58.583Z,11.07
2018-04-27T02:15:24.529Z,10.86
2018-04-27T02:17:50.485Z,10.87
2018-04-27T02:20:16.421Z,11.09
2018-04-27T02:22:42.359Z,10.97
2018-04-27T02:25:08.308Z,11.02
2018-04-27T02:27:34.247Z,10.86
2018-04-27T02:30:00.245Z,10.74
2018-04-27T02:32:26.138Z,10.84
2018-04-27T02:34:52.089Z,10.58
2018-04-27T02:37:18.030Z,10.54
2018-04-27T02:39:43.967Z,10.58
2018-04-27T02:42:09.908Z,10.64
2018-04-27T02:44:35.855Z,10.57
2018-04-27T02:47:01.819Z,10.38
2018-04-27T02:49:27.756Z,10.32
2018-04-27T02:51:53.698Z,10.21
2018-04-27T02:54:19.656Z,10.13
2018-04-27T02:56:45.610Z,10.31
2018-04-27T02:59:11.554Z,10.18
2018-04-27T03:01:37.508Z,10.06
2018-04-27T03:04:03.473Z,10.19
2018-04-27T03:06:29.430Z,10.25
2018-04-27T03:08:55.372Z,10.18
2018-04-27T03:11:21.323Z,10.09
2018-04-27T03:13:47.245Z,9.96
2018-04-27T03:16:13.170Z,9.89
2018-04-27T03:18:39.116Z,9.63
2018-04-27T03:21:05.058Z,9.83
2018-04-27T03:23:31.012Z,9.62
2018-04-27T03:25:56.953Z,9.91
2018-04-27T03:28:22.965Z,9.82
2018-04-27T03:30:48.893Z,9.73
2018-04-27T03:33:14.815Z,9.85
2018-04-27T03:35:40.844Z,9.92
2018-04-27T03:38:06.896Z,9.99
2018-04-27T03:40:32.839Z,9.82
2018-04-27T03:42:58.769Z,9.62
2018-04-27T03:45:24.746Z,9.52
2018-04-27T03:47:50.705Z,9.57
2018-04-27T03:50:16.656Z,9.69
2018-04-27T03:52:42.597Z,9.75
2018-04-27T03:55:08.535Z,9.73
2018-04-27T03:57:34.492Z,9.55
2018-04-27T04:00:02.616Z,9.53
2018-04-27T04:02:28.708Z,9.75
2018-04-27T04:04:54.628Z,9.92
2018-04-27T04:07:20.577Z,9.65
2018-04-27T04:09:46.495Z,9.71
2018-04-27T04:12:12.465Z,9.82
2018-04-27T04:14:38.387Z,9.88
2018-04-27T04:17:04.366Z,9.74
2018-04-27T04:19:30.429Z,10.01
2018-04-27T04:21:56.371Z,9.93
2018-04-27T04:24:22.307Z,9.90
2018-04-27T04:26:48.260Z,9.84
2018-04-27T04:29:14.210Z,9.87
2018-04-27T04:31:40.151Z,10.05
2018-04-27T04:34:06.081Z,10.04
2018-04-27T04:36:31.995Z,10.19
2018-04-27T04:38:57.930Z,10.36
2018-04-27T04:41:23.857Z,10.69
2018-04-27T04:43:49.822Z,10.69
2018-04-27T04:46:16.500Z,10.69
2018-04-27T04:48:43.046Z,10.64
2018-04-27T04:51:08.995Z,10.75
2018-04-27T04:53:34.969Z,10.57
2018-04-27T04:56:00.952Z,10.75
2018-04-27T04:58:26.845Z,10.92
2018-04-27T05:00:52.760Z,11.25
2018-04-27T05:03:18.723Z,10.96
2018-04-27T05:05:44.658Z,10.93
2018-04-27T05:08:10.723Z,11.33
2018-04-27T05:10:36.681Z,11.19
2018-04-27T05:13:02.662Z,10.82
2018-04-27T05:15:28.604Z,11.02
2018-04-27T05:17:54.544Z,10.99
2018-04-27T05:20:20.472Z,10.88
2018-04-27T05:22:46.447Z,11.08
2018-04-27T05:25:12.398Z,11.27
2018-04-27T05:27:38.329Z,11.61
2018-04-27T05:30:04.304Z,11.82
2018-04-27T05:32:30.255Z,11.91
2018-04-27T05:34:56.191Z,11.93
2018-04-27T05:37:22.143Z,11.55
2018-04-27T05:39:48.132Z,11.48
2018-04-27T05:42:14.066Z,11.34
2018-04-27T05:44:39.986Z,11.77
2018-04-27T05:47:05.932Z,12.04
2018-04-27T05:49:31.882Z,12.25
2018-04-27T05:51:57.828Z,12.37
2018-04-27T05:54:23.749Z,12.83
2018-04-27T05:56:49.678Z,12.80
2018-04-27T05:59:15.623Z,12.76
2018-04-27T06:01:41.576Z,12.76
2018-04-27T06:04:07.542Z,12.77
2018-04-27T06:06:33.488Z,12.91
2018-04-27T06:08:59.454Z,13.53
2018-04-27T06:11:25.412Z,13.78
2018-04-27T06:13:51.350Z,13.83
2018-04-27T06:16:17.261Z,13.54
2018-04-27T06:18:43.216Z,13.49
2018-04-27T06:21:09.152Z,13.71
2018-04-27T06:23:35.105Z,13.79
2018-04-27T06:26:01.046Z,13.67
2018-04-27T06:28:27.012Z,14.03
2018-04-27T06:30:52.933Z,14.42
2018-04-27T06:33:18.878Z,14.41
2018-04-27T06:35:44.820Z,14.79
2018-04-27T06:38:10.750Z,14.79
2018-04-27T06:40:36.701Z,14.83
2018-04-27T06:43:02.680Z,15.41
2018-04-27T06:45:28.610Z,15.27
2018-04-27T06:47:54.536Z,15.99
2018-04-27T06:50:20.486Z,16.32
2018-04-27T06:52:46.417Z,16.23
2018-04-27T06:55:12.361Z,16.12
2018-04-27T06:57:38.287Z,16.30
2018-04-27T07:00:04.218Z,16.62
2018-04-27T07:02:30.136Z,17.09
2018-04-27T07:04:56.095Z,17.66
2018-04-27T07:07:22.049Z,16.70
2018-04-27T07:09:47.995Z,17.30
2018-04-27T07:12:13.939Z,17.41
2018-04-27T07:14:39.865Z,17.77
2018-04-27T07:17:05.815Z,17.90
2018-04-27T07:19:31.760Z,17.54
2018-04-27T07:21:57.688Z,17.66
2018-04-27T07:24:23.664Z,17.27
2018-04-27T07:26:49.626Z,17.03
2018-04-27T07:29:15.591Z,16.75
2018-04-27T07:31:41.523Z,16.73
2018-04-27T07:34:07.636Z,16.61
2018-04-27T07:36:33.552Z,16.74
2018-04-27T07:38:59.478Z,16.77
2018-04-27T07:41:25.424Z,16.88
2018-04-27T07:43:51.377Z,16.83
2018-04-27T07:46:17.316Z,17.05
2018-04-27T07:48:43.248Z,16.98
2018-04-27T07:51:09.166Z,17.79
2018-04-27T07:53:35.106Z,17.06
2018-04-27T07:56:01.057Z,16.98
2018-04-27T07:58:26.999Z,16.90
2018-04-27T08:00:52.952Z,16.74
2018-04-27T08:03:18.896Z,16.67
2018-04-27T08:05:44.846Z,16.54
2018-04-27T08:08:10.787Z,16.37
2018-04-27T08:10:36.739Z,16.49
2018-04-27T08:13:02.707Z,16.44
2018-04-27T08:15:28.659Z,16.45
2018-04-27T08:17:55.635Z,16.56
2018-04-27T08:20:21.557Z,16.41
2018-04-27T08:22:47.516Z,16.21
2018-04-27T08:25:13.436Z,16.68
2018-04-27T08:27:39.390Z,17.22
2018-04-27T08:30:05.370Z,17.06
2018-04-27T08:32:31.327Z,16.85
2018-04-27T08:34:57.300Z,16.97
2018-04-27T08:37:23.253Z,17.51
2018-04-27T08:39:49.211Z,17.47
2018-04-27T08:42:15.138Z,17.35
2018-04-27T08:44:41.076Z,17.32
2018-04-27T08:47:07.027Z,17.19
2018-04-27T08:49:32.968Z,17.15
2018-04-27T08:51:58.981Z,17.11
2018-04-27T08:54:24.928Z,17.22
2018-04-27T08:56:50.877Z,17.39
2018-04-27T08:59:16.821Z,17.01
2018-04-27T09:01:42.739Z,17.35
2018-04-27T09:04:08.768Z,17.41
2018-04-27T09:06:34.717Z,17.36
2018-04-27T09:09:00.711Z,17.22
2018-04-27T09:11:26.652Z,17.28
2018-04-27T09:13:52.573Z,17.16
2018-04-27T09:16:18.589Z,17.12
2018-04-27T09:18:44.516Z,17.31
2018-04-27T09:21:10.446Z,17.25
2018-04-27T09:23:36.389Z,17.01
2018-04-27T09:26:02.391Z,17.45
2018-04-27T09:28:28.269Z,17.02
2018-04-27T09:30:54.203Z,17.06
2018-04-27T09:33:20.149Z,16.64
2018-04-27T09:35:46.082Z,16.76
2018-04-27T09:38:12.407Z,16.84
2018-04-27T09:40:38.365Z,17.10
2018-04-27T09:43:04.321Z,16.89
2018-04-27T09:45:30.258Z,16.58
2018-04-27T09:47:56.204Z,17.19
2018-04-27T09:50:22.142Z,17.16
2018-04-27T09:52:48.104Z,17.06
2018-04-27T09:55:14.053Z,16.64
2018-04-27T09:57:40.000Z,16.76
2018-04-27T10:00:05.933Z,16.97
2018-04-27T10:02:31.869Z,16.83
2018-04-27T10:04:57.791Z,16.88
2018-04-27T10:07:23.741Z,17.15
2018-04-27T10:09:49.681Z,17.20
2018-04-27T10:12:15.663Z,17.36
2018-04-27T10:14:41.623Z,16.90
2018-04-27T10:17:07.579Z,16.79
2018-04-27T10:19:33.531Z,17.16
2018-04-27T10:21:59.496Z,17.11
2018-04-27T10:24:25.452Z,17.22
2018-04-27T10:26:51.412Z,17.05
2018-04-27T10:29:17.354Z,17.11
2018-04-27T10:31:43.324Z,16.81
2018-04-27T10:34:09.272Z,17.05
2018-04-27T10:36:35.308Z,17.08
2018-04-27T10:39:01.229Z,17.30
2018-04-27T10:41:27.179Z,16.87
2018-04-27T10:43:53.122Z,16.67
2018-04-27T10:46:19.064Z,16.53
2018-04-27T10:48:45.026Z,16.79
2018-04-27T10:51:10.971Z,16.83
2018-04-27T10:53:36.898Z,16.77
2018-04-27T10:56:02.819Z,16.76
2018-04-27T10:58:28.753Z,16.66
2018-04-27T11:00:54.726Z,16.95
2018-04-27T11:03:20.717Z,16.63
2018-04-27T11:05:46.628Z,16.59
2018-04-27T11:08:12.599Z,16.60
2018-04-27T11:10:38.547Z,16.58
2018-04-27T11:13:04.819Z,16.65
2018-04-27T11:15:30.767Z,16.77
2018-04-27T11:17:56.721Z,16.71
2018-04-27T11:20:22.665Z,16.78
2018-04-27T11:22:48.622Z,16.77
2018-04-27T11:25:14.543Z,16.81
2018-04-27T11:27:40.481Z,16.82
2018-04-27T11:30:06.408Z,17.22
2018-04-27T11:32:32.344Z,17.33
2018-04-27T11:34:58.273Z,17.26
2018-04-27T11:37:24.231Z,16.93
2018-04-27T11:39:50.157Z,16.93
2018-04-27T11:42:16.125Z,17.20
2018-04-27T11:44:42.080Z,17.06
2018-04-27T11:47:08.020Z,16.88
2018-04-27T11:49:33.951Z,16.81
2018-04-27T11:51:59.896Z,16.91
2018-04-27T11:54:25.870Z,16.78
2018-04-27T11:56:51.818Z,16.82
2018-04-27T11:59:17.763Z,16.90
2018-04-27T12:01:43.840Z,17.30
2018-04-27T12:04:09.866Z,17.31
2018-04-27T12:06:35.818Z,17.34
2018-04-27T12:09:01.755Z,17.30
2018-04-27T12:11:27.721Z,17.17
2018-04-27T12:13:53.661Z,17.13
2018-04-27T12:16:19.581Z,17.18
2018-04-27T12:18:45.519Z,16.94
2018-04-27T12:21:11.473Z,17.11
2018-04-27T12:23:37.446Z,16.98
2018-04-27T12:26:03.391Z,16.80
2018-04-27T12:28:29.379Z,16.63
2018-04-27T12:30:55.363Z,16.68
2018-04-27T12:33:21.335Z,17.04
2018-04-27T12:35:47.290Z,17.31
2018-04-27T12:38:13.274Z,17.35
2018-04-27T12:40:39.214Z,17.49
2018-04-27T12:43:05.211Z,17.47
2018-04-27T12:45:31.137Z,17.29
2018-04-27T12:47:57.079Z,17.10
2018-04-27T12:50:23.017Z,17.01
2018-04-27T12:52:48.988Z,16.99
2018-04-27T12:55:14.928Z,17.05
2018-04-27T12:57:40.881Z,17.19
2018-04-27T13:00:06.814Z,17.08
2018-04-27T13:02:32.803Z,17.11
2018-04-27T13:04:58.757Z,16.96
2018-04-27T13:07:24.701Z,17.10
2018-04-27T13:09:50.636Z,17.14
2018-04-27T13:12:16.591Z,16.96
2018-04-27T13:14:42.592Z,16.86
2018-04-27T13:17:08.535Z,16.95
2018-04-27T13:19:34.494Z,16.88
2018-04-27T13:22:00.447Z,16.95
2018-04-27T13:24:26.406Z,16.95
2018-04-27T13:26:52.360Z,16.94
2018-04-27T13:29:18.357Z,17.02
2018-04-27T13:31:44.311Z,17.15
2018-04-27T13:34:10.257Z,16.99
2018-04-27T13:36:36.210Z,17.06
2018-04-27T13:39:02.160Z,17.15
2018-04-27T13:41:28.093Z,17.02
2018-04-27T13:43:54.039Z,17.08
2018-04-27T13:46:19.981Z,17.20
2018-04-27T13:48:45.942Z,17.15
2018-04-27T13:51:11.892Z,17.28
2018-04-27T13:53:37.830Z,17.13
2018-04-27T13:56:03.810Z,17.06
2018-04-27T13:58:29.795Z,17.00
2018-04-27T14:00:55.755Z,17.13
2018-04-27T14:03:21.713Z,17.14
2018-04-27T14:05:47.680Z,17.22
2018-04-27T14:08:13.616Z,17.12
2018-04-27T14:10:39.556Z,17.19
2018-04-27T14:13:06.388Z,17.30
2018-04-27T14:15:32.405Z,17.17
2018-04-27T14:17:59.420Z,17.10
2018-04-27T14:20:25.370Z,17.10
2018-04-27T14:22:51.334Z,17.11
2018-04-27T14:25:17.294Z,17.17
2018-04-27T14:27:43.244Z,17.16
2018-04-27T14:30:09.189Z,17.13
2018-04-27T14:32:35.115Z,17.19
2018-04-27T14:35:01.053Z,17.26
2018-04-27T14:37:26.984Z,17.23
2018-04-27T14:39:52.926Z,17.30
2018-04-27T14:42:19.101Z,17.10
2018-04-27T14:44:45.208Z,17.25
2018-04-27T14:47:11.200Z,17.24
2018-04-27T14:49:37.272Z,17.25
2018-04-27T14:52:03.319Z,17.23
2018-04-27T14:54:29.379Z,17.17
2018-04-27T14:56:55.336Z,17.34
2018-04-27T14:59:22.390Z,17.22
2018-04-27T15:01:48.381Z,17.27
2018-04-27T15:04:14.414Z,17.40
2018-04-27T15:06:40.401Z,17.53
2018-04-27T15:09:06.983Z,17.60
2018-04-27T15:11:32.959Z,17.47
2018-04-27T15:13:58.935Z,17.53
2018-04-27T15:16:24.861Z,17.54
2018-04-27T15:18:50.820Z,17.49
2018-04-27T15:21:16.740Z,17.55
2018-04-27T15:23:42.683Z,17.55
2018-04-27T15:26:08.649Z,17.53
2018-04-27T15:28:34.612Z,17.53
2018-04-27T15:31:00.575Z,17.48
2018-04-27T15:33:26.528Z,17.43
2018-04-27T15:35:52.480Z,17.44
2018-04-27T15:38:18.436Z,17.46
2018-04-27T15:40:44.373Z,17.53
2018-04-27T15:43:10.329Z,17.60
2018-04-27T15:45:36.272Z,17.69
2018-04-27T15:48:02.201Z,17.53
2018-04-27T15:50:28.164Z,17.47
2018-04-27T15:52:54.117Z,17.52
2018-04-27T15:55:20.098Z,17.47
2018-04-27T15:57:46.040Z,17.46
2018-04-27T16:00:12.029Z,17.43
2018-04-27T16:02:37.978Z,17.53
2018-04-27T16:05:03.913Z,17.55
2018-04-27T16:07:29.897Z,17.57
2018-04-27T16:09:55.891Z,17.54
2018-04-27T16:12:21.854Z,17.63
2018-04-27T16:14:47.817Z,17.77
2018-04-27T16:17:13.775Z,17.71
2018-04-27T16:19:39.714Z,17.76
2018-04-27T16:22:05.646Z,17.64
2018-04-27T16:24:31.634Z,17.65
2018-04-27T16:26:57.555Z,17.58
2018-04-27T16:29:23.492Z,17.64
2018-04-27T16:31:49.438Z,17.58
2018-04-27T16:34:15.405Z,17.60
2018-04-27T16:36:41.341Z,17.64
2018-04-27T16:39:07.273Z,17.63
2018-04-27T16:41:33.254Z,17.53
2018-04-27T16:43:59.204Z,17.53
2018-04-27T16:46:25.130Z,17.52
2018-04-27T16:48:51.064Z,17.52
2018-04-27T16:51:17.009Z,17.50
2018-04-27T16:53:42.955Z,17.53
2018-04-27T16:56:08.907Z,17.50
2018-04-27T16:58:34.839Z,17.50
2018-04-27T17:01:00.776Z,17.48
2018-04-27T17:03:26.745Z,17.46
2018-04-27T17:05:52.673Z,17.46
2018-04-27T17:08:18.610Z,17.49
2018-04-27T17:10:44.546Z,17.50
2018-04-27T17:13:10.484Z,17.55
2018-04-27T17:15:36.433Z,17.48
2018-04-27T17:18:02.391Z,17.49
2018-04-27T17:20:28.351Z,17.47
2018-04-27T17:22:54.303Z,17.49
2018-04-27T17:25:20.308Z,17.48
2018-04-27T17:27:46.247Z,17.47
2018-04-27T17:30:15.829Z,17.48
2018-04-27T17:32:41.877Z,17.47
2018-04-27T17:35:07.826Z,17.44
2018-04-27T17:37:33.812Z,17.44
2018-04-27T17:39:59.773Z,17.47
2018-04-27T17:42:25.745Z,17.44
2018-04-27T17:44:51.693Z,17.44
2018-04-27T17:47:17.637Z,17.42
2018-04-27T17:49:43.575Z,17.44
2018-04-27T17:52:09.508Z,17.39
2018-04-27T17:54:35.449Z,17.46
2018-04-27T17:57:01.393Z,17.38
2018-04-27T17:59:27.591Z,17.39
2018-04-27T18:01:53.496Z,17.37
2018-04-27T18:04:19.417Z,17.45
2018-04-27T18:06:45.355Z,17.38
2018-04-27T18:09:11.423Z,17.39
2018-04-27T18:11:37.768Z,17.26
2018-04-27T18:14:03.739Z,17.22
2018-04-27T18:16:29.716Z,17.21
2018-04-27T18:18:55.678Z,17.19
2018-04-27T18:21:21.632Z,17.27
2018-04-27T18:23:47.575Z,17.20
2018-04-27T18:26:13.584Z,17.23
2018-04-27T18:28:39.518Z,17.17
2018-04-27T18:31:05.517Z,17.10
2018-04-27T18:33:31.467Z,17.08
2018-04-27T18:35:57.433Z,17.00
2018-04-27T18:38:24.383Z,16.87
2018-04-27T18:40:50.323Z,16.89
2018-04-27T18:43:16.297Z,16.99
2018-04-27T18:45:42.258Z,16.97
2018-04-27T18:48:08.236Z,16.95
2018-04-27T18:50:34.199Z,16.74
2018-04-27T18:53:00.125Z,16.57
2018-04-27T18:55:26.066Z,16.51
2018-04-27T18:57:52.006Z,16.57
2018-04-27T19:00:17.969Z,16.62
2018-04-27T19:02:43.926Z,16.61
2018-04-27T19:05:09.858Z,16.53
2018-04-27T19:07:35.816Z,16.30
2018-04-27T19:10:01.747Z,16.31
2018-04-27T19:12:27.697Z,16.18
2018-04-27T19:14:53.645Z,16.14
2018-04-27T19:17:19.594Z,16.05
2018-04-27T19:19:45.534Z,15.94
2018-04-27T19:22:11.478Z,16.02
2018-04-27T19:24:37.450Z,15.97
2018-04-27T19:27:03.410Z,15.99
2018-04-27T19:29:29.441Z,16.01
2018-04-27T19:31:55.420Z,15.92
2018-04-27T19:34:21.371Z,15.76
2018-04-27T19:36:47.344Z,15.70
2018-04-27T19:39:13.305Z,15.86
2018-04-27T19:41:39.242Z,15.85
2018-04-27T19:44:05.165Z,15.91
2018-04-27T19:46:31.114Z,15.48
2018-04-27T19:48:57.071Z,15.40
2018-04-27T19:51:23.017Z,15.38
2018-04-27T19:53:48.951Z,15.19
2018-04-27T19:56:14.901Z,15.37
2018-04-27T19:58:40.848Z,15.55
2018-04-27T20:01:06.801Z,15.15
2018-04-27T20:03:32.752Z,15.00
2018-04-27T20:05:58.686Z,14.90
2018-04-27T20:08:24.645Z,14.92
2018-04-27T20:10:50.642Z,14.87
2018-04-27T20:13:16.570Z,14.84
2018-04-27T20:15:42.508Z,14.87
2018-04-27T20:18:08.480Z,14.83
2018-04-27T20:20:34.420Z,14.93
2018-04-27T20:23:00.390Z,14.92
2018-04-27T20:25:26.321Z,14.96
2018-04-27T20:27:52.261Z,14.94
2018-04-27T20:30:18.229Z,14.79
2018-04-27T20:32:44.181Z,14.63
2018-04-27T20:35:10.113Z,14.61
2018-04-27T20:37:36.060Z,14.31
2018-04-27T20:40:03.062Z,14.35
2018-04-27T20:42:29.026Z,14.29
2018-04-27T20:44:54.979Z,14.12
2018-04-27T20:47:20.944Z,14.23
2018-04-27T20:49:46.892Z,13.98
2018-04-27T20:52:12.848Z,13.99
2018-04-27T20:54:39.839Z,14.00
2018-04-27T20:57:05.817Z,14.03
2018-04-27T20:59:31.755Z,13.97
2018-04-27T21:01:57.697Z,13.90
2018-04-27T21:04:23.685Z,13.88
2018-04-27T21:06:49.691Z,13.88
2018-04-27T21:09:15.630Z,13.79
2018-04-27T21:11:41.597Z,13.84
2018-04-27T21:14:07.619Z,13.73
2018-04-27T21:16:33.528Z,13.79
2018-04-27T21:18:59.481Z,13.71
2018-04-27T21:21:25.428Z,13.74
2018-04-27T21:23:51.419Z,13.85
2018-04-27T21:26:17.621Z,13.78
2018-04-27T21:28:43.592Z,13.86
2018-04-27T21:31:09.581Z,13.91
2018-04-27T21:33:35.537Z,13.81
2018-04-27T21:36:02.526Z,13.66
2018-04-27T21:38:28.514Z,13.56
2018-04-27T21:40:54.484Z,13.61
2018-04-27T21:43:20.448Z,13.62
2018-04-27T21:45:46.377Z,13.74
2018-04-27T21:48:12.719Z,13.70
2018-04-27T21:50:38.681Z,13.96
2018-04-27T21:53:04.649Z,13.67
2018-04-27T21:55:30.585Z,13.70
2018-04-27T21:57:56.574Z,13.71
2018-04-27T22:00:22.511Z,13.93
2018-04-27T22:02:48.461Z,13.59
2018-04-27T22:05:14.448Z,13.48
2018-04-27T22:07:40.437Z,13.41
2018-04-27T22:10:06.379Z,13.66
2018-04-27T22:12:32.347Z,13.60
2018-04-27T22:14:58.329Z,13.41
2018-04-27T22:17:24.267Z,13.43
2018-04-27T22:19:50.220Z,13.45
2018-04-27T22:22:16.182Z,13.46
2018-04-27T22:24:42.162Z,13.44
2018-04-27T22:27:08.121Z,13.32
2018-04-27T22:29:34.089Z,13.25
2018-04-27T22:32:00.040Z,13.28
2018-04-27T22:34:26.049Z,13.32
2018-04-27T22:36:52.022Z,13.10
2018-04-27T22:39:17.993Z,13.29
2018-04-27T22:41:43.965Z,13.34
2018-04-27T22:44:09.916Z,13.06
2018-04-27T22:46:35.873Z,13.14
2018-04-27T22:49:01.831Z,13.25
2018-04-27T22:51:27.798Z,13.30
2018-04-27T22:53:53.773Z,13.00
2018-04-27T22:56:19.764Z,12.96
2018-04-27T22:58:45.736Z,12.84
2018-04-27T23:01:12.264Z,12.83
2018-04-27T23:03:38.219Z,12.96
2018-04-27T23:06:04.162Z,13.09
2018-04-27T23:08:30.103Z,13.07
2018-04-27T23:10:56.084Z,13.20
2018-04-27T23:13:22.018Z,12.97
2018-04-27T23:15:47.968Z,12.86
2018-04-27T23:18:13.930Z,12.80
2018-04-27T23:20:39.893Z,12.68
2018-04-27T23:23:05.874Z,12.82
2018-04-27T23:25:31.865Z,12.77
2018-04-27T23:27:57.811Z,12.71
2018-04-27T23:30:23.738Z,12.77
2018-04-27T23:32:49.680Z,12.67
2018-04-27T23:35:15.677Z,12.56
2018-04-27T23:37:41.620Z,12.68
2018-04-27T23:40:07.596Z,12.71
2018-04-27T23:42:33.543Z,12.63
2018-04-27T23:44:59.499Z,12.79
2018-04-27T23:47:25.450Z,12.56
2018-04-27T23:49:51.401Z,12.51
2018-04-27T23:52:17.325Z,12.32
2018-04-27T23:54:43.272Z,12.42
2018-04-27T23:57:09.204Z,12.64
2018-04-27T23:59:35.131Z,12.72
